sensor_id;sensor_type;location;lat;lon;timestamp;pressure;altitude;pressure_sealevel;temperature;humidity
21182;BME280;10749;46.296;7.524;2023-08-31T00:01:08;94599.19;;;17.62;46.20
21182;BME280;10749;46.296;7.524;2023-08-31T00:03:34;94599.00;;;17.57;46.68
21182;BME280;10749;46.296;7.524;2023-08-31T00:06:01;94598.91;;;17.51;47.03
21182;BME280;10749;46.296;7.524;2023-08-31T00:08:27;94603.28;;;17.46;47.13
21182;BME280;10749;46.296;7.524;2023-08-31T00:10:59;94604.53;;;17.43;47.37
21182;BME280;10749;46.296;7.524;2023-08-31T00:13:28;94602.94;;;17.42;47.72
21182;BME280;10749;46.296;7.524;2023-08-31T00:15:57;94605.47;;;17.37;47.92
21182;BME280;10749;46.296;7.524;2023-08-31T00:18:23;94606.50;;;17.36;48.05
21182;BME280;10749;46.296;7.524;2023-08-31T00:20:50;94604.53;;;17.43;47.45
21182;BME280;10749;46.296;7.524;2023-08-31T00:23:15;94601.44;;;17.46;46.92
21182;BME280;10749;46.296;7.524;2023-08-31T00:25:40;94608.28;;;17.42;47.45
21182;BME280;10749;46.296;7.524;2023-08-31T00:28:08;94610.13;;;17.42;47.53
21182;BME280;10749;46.296;7.524;2023-08-31T00:30:34;94609.78;;;17.38;47.63
21182;BME280;10749;46.296;7.524;2023-08-31T00:32:59;94608.72;;;17.39;47.80
21182;BME280;10749;46.296;7.524;2023-08-31T00:35:26;94617.91;;;17.43;47.06
21182;BME280;10749;46.296;7.524;2023-08-31T00:37:52;94618.75;;;17.44;47.22
21182;BME280;10749;46.296;7.524;2023-08-31T00:40:22;94625.00;;;17.38;48.00
21182;BME280;10749;46.296;7.524;2023-08-31T00:42:47;94625.22;;;17.36;47.73
21182;BME280;10749;46.296;7.524;2023-08-31T00:45:12;94623.72;;;17.40;47.69
21182;BME280;10749;46.296;7.524;2023-08-31T00:47:38;94625.72;;;17.45;47.51
21182;BME280;10749;46.296;7.524;2023-08-31T00:50:03;94626.09;;;17.48;47.44
21182;BME280;10749;46.296;7.524;2023-08-31T00:52:29;94618.53;;;17.45;48.16
21182;BME280;10749;46.296;7.524;2023-08-31T00:54:55;94615.84;;;17.45;47.92
21182;BME280;10749;46.296;7.524;2023-08-31T00:57:20;94627.00;;;17.42;48.25
21182;BME280;10749;46.296;7.524;2023-08-31T00:59:46;94623.25;;;17.43;48.35
21182;BME280;10749;46.296;7.524;2023-08-31T01:02:17;94622.47;;;17.43;48.53
21182;BME280;10749;46.296;7.524;2023-08-31T01:04:48;94632.50;;;17.47;48.16
21182;BME280;10749;46.296;7.524;2023-08-31T01:07:53;94627.00;;;17.42;48.38
21182;BME280;10749;46.296;7.524;2023-08-31T01:13:24;94625.31;;;17.30;48.33
21182;BME280;10749;46.296;7.524;2023-08-31T01:15:59;94628.22;;;17.28;48.38
21182;BME280;10749;46.296;7.524;2023-08-31T01:18:26;94628.66;;;17.25;48.61
21182;BME280;10749;46.296;7.524;2023-08-31T01:21:02;94633.41;;;17.23;48.75
21182;BME280;10749;46.296;7.524;2023-08-31T01:23:43;94627.63;;;17.26;48.45
21182;BME280;10749;46.296;7.524;2023-08-31T01:26:09;94627.63;;;17.26;48.70
21182;BME280;10749;46.296;7.524;2023-08-31T01:28:35;94630.31;;;17.26;48.87
21182;BME280;10749;46.296;7.524;2023-08-31T01:31:03;94630.31;;;17.26;49.15
21182;BME280;10749;46.296;7.524;2023-08-31T01:33:29;94636.69;;;17.25;48.78
21182;BME280;10749;46.296;7.524;2023-08-31T01:35:56;94639.38;;;17.25;48.77
21182;BME280;10749;46.296;7.524;2023-08-31T01:38:27;94641.44;;;17.23;49.15
21182;BME280;10749;46.296;7.524;2023-08-31T01:41:07;94644.56;;;17.20;49.33
21182;BME280;10749;46.296;7.524;2023-08-31T01:43:33;94649.91;;;17.20;49.33
21182;BME280;10749;46.296;7.524;2023-08-31T01:46:00;94643.28;;;17.23;49.39
21182;BME280;10749;46.296;7.524;2023-08-31T01:48:26;94657.06;;;17.26;49.13
21182;BME280;10749;46.296;7.524;2023-08-31T01:50:52;94658.66;;;17.27;49.28
21182;BME280;10749;46.296;7.524;2023-08-31T01:53:17;94656.44;;;17.24;49.59
21182;BME280;10749;46.296;7.524;2023-08-31T01:55:42;94651.41;;;17.16;49.43
21182;BME280;10749;46.296;7.524;2023-08-31T01:58:07;94653.06;;;17.17;49.75
21182;BME280;10749;46.296;7.524;2023-08-31T02:00:33;94652.81;;;17.19;49.58
21182;BME280;10749;46.296;7.524;2023-08-31T02:03:00;94655.72;;;17.17;49.55
21182;BME280;10749;46.296;7.524;2023-08-31T02:05:25;94662.72;;;17.18;49.85
21182;BME280;10749;46.296;7.524;2023-08-31T02:07:51;94656.97;;;17.15;49.64
21182;BME280;10749;46.296;7.524;2023-08-31T02:10:16;94650.44;;;17.11;49.79
21182;BME280;10749;46.296;7.524;2023-08-31T02:12:41;94646.00;;;17.04;50.06
21182;BME280;10749;46.296;7.524;2023-08-31T02:15:07;94655.88;;;17.04;50.00
21182;BME280;10749;46.296;7.524;2023-08-31T02:17:35;94652.53;;;17.08;49.51
21182;BME280;10749;46.296;7.524;2023-08-31T02:20:01;94653.00;;;17.05;49.86
21182;BME280;10749;46.296;7.524;2023-08-31T02:22:30;94643.53;;;17.03;50.05
21182;BME280;10749;46.296;7.524;2023-08-31T02:24:56;94648.75;;;16.98;50.00
21182;BME280;10749;46.296;7.524;2023-08-31T02:27:21;94648.75;;;16.98;50.08
21182;BME280;10749;46.296;7.524;2023-08-31T02:29:46;94647.34;;;16.95;49.81
21182;BME280;10749;46.296;7.524;2023-08-31T02:32:12;94642.81;;;16.96;50.09
21182;BME280;10749;46.296;7.524;2023-08-31T02:34:37;94637.09;;;16.92;50.35
21182;BME280;10749;46.296;7.524;2023-08-31T02:37:02;94638.22;;;16.85;50.37
21182;BME280;10749;46.296;7.524;2023-08-31T02:39:28;94637.41;;;16.84;50.30
21182;BME280;10749;46.296;7.524;2023-08-31T02:41:53;94636.38;;;16.85;49.69
21182;BME280;10749;46.296;7.524;2023-08-31T02:44:18;94640.13;;;16.78;50.21
21182;BME280;10749;46.296;7.524;2023-08-31T02:46:44;94634.94;;;16.83;50.34
21182;BME280;10749;46.296;7.524;2023-08-31T02:49:09;94632.28;;;16.83;50.59
21182;BME280;10749;46.296;7.524;2023-08-31T02:51:34;94631.69;;;16.81;50.70
21182;BME280;10749;46.296;7.524;2023-08-31T02:53:59;94625.72;;;16.79;50.96
21182;BME280;10749;46.296;7.524;2023-08-31T02:56:25;94620.22;;;16.74;50.91
21182;BME280;10749;46.296;7.524;2023-08-31T02:58:50;94619.03;;;16.70;50.99
21182;BME280;10749;46.296;7.524;2023-08-31T03:01:16;94624.19;;;16.71;51.08
21182;BME280;10749;46.296;7.524;2023-08-31T03:03:41;94615.94;;;16.73;51.07
21182;BME280;10749;46.296;7.524;2023-08-31T03:06:08;94614.75;;;16.69;51.09
21182;BME280;10749;46.296;7.524;2023-08-31T03:08:34;94617.19;;;16.70;51.02
21182;BME280;10749;46.296;7.524;2023-08-31T03:11:00;94624.38;;;16.70;51.09
21182;BME280;10749;46.296;7.524;2023-08-31T03:13:25;94621.72;;;16.70;50.94
21182;BME280;10749;46.296;7.524;2023-08-31T03:15:51;94615.19;;;16.66;51.28
21182;BME280;10749;46.296;7.524;2023-08-31T03:18:16;94620.91;;;16.69;51.10
21182;BME280;10749;46.296;7.524;2023-08-31T03:20:41;94627.31;;;16.68;51.20
21182;BME280;10749;46.296;7.524;2023-08-31T03:23:06;94626.03;;;16.71;51.06
21182;BME280;10749;46.296;7.524;2023-08-31T03:25:32;94623.00;;;16.67;51.14
21182;BME280;10749;46.296;7.524;2023-08-31T03:27:57;94618.69;;;16.66;51.33
21182;BME280;10749;46.296;7.524;2023-08-31T03:30:22;94620.53;;;16.66;51.32
21182;BME280;10749;46.296;7.524;2023-08-31T03:32:48;94617.69;;;16.60;51.45
21182;BME280;10749;46.296;7.524;2023-08-31T03:35:13;94618.97;;;16.58;51.56
21182;BME280;10749;46.296;7.524;2023-08-31T03:37:38;94616.09;;;16.53;52.06
21182;BME280;10749;46.296;7.524;2023-08-31T03:40:04;94611.59;;;16.53;51.65
21182;BME280;10749;46.296;7.524;2023-08-31T03:42:31;94611.13;;;16.56;51.19
21182;BME280;10749;46.296;7.524;2023-08-31T03:44:56;94617.69;;;16.60;51.33
21182;BME280;10749;46.296;7.524;2023-08-31T03:47:22;94619.59;;;16.60;51.22
21182;BME280;10749;46.296;7.524;2023-08-31T03:49:47;94624.31;;;16.58;51.65
21182;BME280;10749;46.296;7.524;2023-08-31T03:52:12;94631.94;;;16.54;51.62
21182;BME280;10749;46.296;7.524;2023-08-31T03:54:37;94630.28;;;16.53;51.72
21182;BME280;10749;46.296;7.524;2023-08-31T03:57:03;94636.25;;;16.55;51.52
21182;BME280;10749;46.296;7.524;2023-08-31T03:59:28;94627.59;;;16.60;51.58
21182;BME280;10749;46.296;7.524;2023-08-31T04:01:53;94636.41;;;16.60;51.43
21182;BME280;10749;46.296;7.524;2023-08-31T04:04:19;94638.28;;;16.60;51.48
21182;BME280;10749;46.296;7.524;2023-08-31T04:06:44;94640.72;;;16.61;51.35
21182;BME280;10749;46.296;7.524;2023-08-31T04:09:10;94641.31;;;16.64;51.44
21182;BME280;10749;46.296;7.524;2023-08-31T04:11:35;94644.41;;;16.60;51.35
21182;BME280;10749;46.296;7.524;2023-08-31T04:14:00;94644.88;;;16.57;51.53
21182;BME280;10749;46.296;7.524;2023-08-31T04:16:26;94638.28;;;16.60;51.76
21182;BME280;10749;46.296;7.524;2023-08-31T04:18:51;94645.25;;;16.61;51.28
21182;BME280;10749;46.296;7.524;2023-08-31T04:21:17;94646.06;;;16.61;51.49
21182;BME280;10749;46.296;7.524;2023-08-31T04:23:43;94648.72;;;16.61;51.62
21182;BME280;10749;46.296;7.524;2023-08-31T04:26:10;94655.09;;;16.60;51.37
21182;BME280;10749;46.296;7.524;2023-08-31T04:28:35;94656.75;;;16.61;51.75
21182;BME280;10749;46.296;7.524;2023-08-31T04:31:00;94656.31;;;16.65;51.50
21182;BME280;10749;46.296;7.524;2023-08-31T04:33:26;94659.56;;;16.67;51.33
21182;BME280;10749;46.296;7.524;2023-08-31T04:35:52;94664.47;;;16.70;51.38
21182;BME280;10749;46.296;7.524;2023-08-31T04:38:17;94664.47;;;16.70;51.38
21182;BME280;10749;46.296;7.524;2023-08-31T04:40:42;94670.44;;;16.72;51.27
21182;BME280;10749;46.296;7.524;2023-08-31T04:43:08;94665.66;;;16.74;51.37
21182;BME280;10749;46.296;7.524;2023-08-31T04:45:34;94678.81;;;16.75;51.19
21182;BME280;10749;46.296;7.524;2023-08-31T04:47:59;94677.53;;;16.78;51.08
21182;BME280;10749;46.296;7.524;2023-08-31T04:50:25;94680.00;;;16.79;51.38
21182;BME280;10749;46.296;7.524;2023-08-31T04:52:50;94678.97;;;16.80;51.50
21182;BME280;10749;46.296;7.524;2023-08-31T04:55:16;94696.91;;;16.73;51.46
21182;BME280;10749;46.296;7.524;2023-08-31T04:57:41;94690.63;;;16.68;51.00
21182;BME280;10749;46.296;7.524;2023-08-31T05:00:07;94696.25;;;16.59;50.32
21182;BME280;10749;46.296;7.524;2023-08-31T05:02:34;94693.38;;;16.54;50.33
21182;BME280;10749;46.296;7.524;2023-08-31T05:04:59;94700.78;;;16.52;50.51
21182;BME280;10749;46.296;7.524;2023-08-31T05:07:25;94708.78;;;16.52;50.76
21182;BME280;10749;46.296;7.524;2023-08-31T05:09:50;94714.38;;;16.51;51.24
21182;BME280;10749;46.296;7.524;2023-08-31T05:12:15;94714.38;;;16.51;51.90
21182;BME280;10749;46.296;7.524;2023-08-31T05:14:42;94718.44;;;16.53;51.67
21182;BME280;10749;46.296;7.524;2023-08-31T05:17:07;94724.41;;;16.55;51.82
21182;BME280;10749;46.296;7.524;2023-08-31T05:19:33;94729.94;;;16.54;51.89
21182;BME280;10749;46.296;7.524;2023-08-31T05:21:58;94726.88;;;16.57;52.08
21182;BME280;10749;46.296;7.524;2023-08-31T05:24:23;94728.31;;;16.59;51.99
21182;BME280;10749;46.296;7.524;2023-08-31T05:26:49;94729.75;;;16.55;52.00
21182;BME280;10749;46.296;7.524;2023-08-31T05:29:15;94737.75;;;16.55;52.20
21182;BME280;10749;46.296;7.524;2023-08-31T05:31:40;94743.09;;;16.55;52.32
21182;BME280;10749;46.296;7.524;2023-08-31T05:34:06;94735.69;;;16.57;52.06
21182;BME280;10749;46.296;7.524;2023-08-31T05:36:31;94736.91;;;16.61;52.40
21182;BME280;10749;46.296;7.524;2023-08-31T05:38:56;94745.94;;;16.60;52.62
21182;BME280;10749;46.296;7.524;2023-08-31T05:41:21;94749.44;;;16.61;52.31
21182;BME280;10749;46.296;7.524;2023-08-31T05:43:47;94748.63;;;16.60;52.52
21182;BME280;10749;46.296;7.524;2023-08-31T05:46:12;94750.91;;;16.57;52.60
21182;BME280;10749;46.296;7.524;2023-08-31T05:48:37;94755.03;;;16.59;52.84
21182;BME280;10749;46.296;7.524;2023-08-31T05:51:03;94758.72;;;16.58;52.67
21182;BME280;10749;46.296;7.524;2023-08-31T05:53:30;94763.66;;;16.55;52.93
21182;BME280;10749;46.296;7.524;2023-08-31T05:55:57;94761.97;;;16.60;52.85
21182;BME280;10749;46.296;7.524;2023-08-31T05:58:34;94754.78;;;16.61;52.59
21182;BME280;10749;46.296;7.524;2023-08-31T06:01:01;94767.31;;;16.60;52.90
21182;BME280;10749;46.296;7.524;2023-08-31T06:03:26;94769.56;;;16.64;52.08
21182;BME280;10749;46.296;7.524;2023-08-31T06:05:52;94763.19;;;16.65;51.74
21182;BME280;10749;46.296;7.524;2023-08-31T06:08:17;94760.53;;;16.65;51.68
21182;BME280;10749;46.296;7.524;2023-08-31T06:10:42;94759.06;;;16.69;51.73
21182;BME280;10749;46.296;7.524;2023-08-31T06:13:08;94757.59;;;16.73;51.77
21182;BME280;10749;46.296;7.524;2023-08-31T06:15:34;94767.38;;;16.79;52.02
21182;BME280;10749;46.296;7.524;2023-08-31T06:17:59;94766.34;;;16.80;52.30
21182;BME280;10749;46.296;7.524;2023-08-31T06:20:24;94767.09;;;16.87;52.25
21182;BME280;10749;46.296;7.524;2023-08-31T06:22:49;94769.72;;;16.93;52.50
21182;BME280;10749;46.296;7.524;2023-08-31T06:25:15;94763.69;;;16.98;52.44
21182;BME280;10749;46.296;7.524;2023-08-31T06:27:42;94762.81;;;17.04;52.20
21182;BME280;10749;46.296;7.524;2023-08-31T06:30:11;94760.97;;;17.04;52.58
21182;BME280;10749;46.296;7.524;2023-08-31T06:32:46;94764.47;;;17.05;52.51
21182;BME280;10749;46.296;7.524;2023-08-31T06:35:13;94765.03;;;17.07;52.49
21182;BME280;10749;46.296;7.524;2023-08-31T06:37:39;94762.31;;;17.14;52.35
21182;BME280;10749;46.296;7.524;2023-08-31T06:40:09;94765.94;;;17.19;52.64
21182;BME280;10749;46.296;7.524;2023-08-31T06:42:38;94766.41;;;17.16;52.36
21182;BME280;10749;46.296;7.524;2023-08-31T06:45:05;94768.78;;;17.24;52.42
21182;BME280;10749;46.296;7.524;2023-08-31T06:47:31;94764.63;;;17.28;52.31
21182;BME280;10749;46.296;7.524;2023-08-31T06:49:56;94768.47;;;17.32;52.34
21182;BME280;10749;46.296;7.524;2023-08-31T06:52:23;94774.00;;;17.37;52.26
21182;BME280;10749;46.296;7.524;2023-08-31T06:54:48;94771.00;;;17.45;52.75
21182;BME280;10749;46.296;7.524;2023-08-31T06:57:13;94774.59;;;17.58;52.58
21182;BME280;10749;46.296;7.524;2023-08-31T06:59:39;94770.13;;;17.70;52.73
21182;BME280;10749;46.296;7.524;2023-08-31T07:02:04;94774.81;;;17.74;52.40
21182;BME280;10749;46.296;7.524;2023-08-31T07:04:30;94770.44;;;17.80;52.59
21182;BME280;10749;46.296;7.524;2023-08-31T07:06:55;94777.09;;;17.89;52.67
21182;BME280;10749;46.296;7.524;2023-08-31T07:09:20;94773.72;;;17.93;52.45
21182;BME280;10749;46.296;7.524;2023-08-31T07:11:45;94772.00;;;17.99;52.44
21182;BME280;10749;46.296;7.524;2023-08-31T07:14:11;94772.72;;;18.06;51.89
21182;BME280;10749;46.296;7.524;2023-08-31T07:16:36;94769.84;;;18.08;52.20
21182;BME280;10749;46.296;7.524;2023-08-31T07:19:01;94778.38;;;18.16;52.09
21182;BME280;10749;46.296;7.524;2023-08-31T07:21:27;94777.34;;;18.17;52.21
21182;BME280;10749;46.296;7.524;2023-08-31T07:23:53;94777.56;;;18.16;52.05
21182;BME280;10749;46.296;7.524;2023-08-31T07:26:19;94783.97;;;18.26;52.30
21182;BME280;10749;46.296;7.524;2023-08-31T07:28:44;94790.91;;;18.34;51.98
21182;BME280;10749;46.296;7.524;2023-08-31T07:31:09;94793.59;;;18.45;52.03
21182;BME280;10749;46.296;7.524;2023-08-31T07:33:35;94792.69;;;18.52;51.76
21182;BME280;10749;46.296;7.524;2023-08-31T07:36:02;94799.16;;;18.62;52.06
21182;BME280;10749;46.296;7.524;2023-08-31T07:38:30;94792.84;;;18.68;51.98
21182;BME280;10749;46.296;7.524;2023-08-31T07:40:55;94791.00;;;18.80;51.90
21182;BME280;10749;46.296;7.524;2023-08-31T07:43:21;94793.72;;;18.92;52.03
21182;BME280;10749;46.296;7.524;2023-08-31T07:45:46;94798.63;;;19.07;51.84
21182;BME280;10749;46.296;7.524;2023-08-31T07:48:11;94789.06;;;19.22;51.66
21182;BME280;10749;46.296;7.524;2023-08-31T07:50:37;94791.50;;;19.35;51.95
21182;BME280;10749;46.296;7.524;2023-08-31T07:53:02;94798.88;;;19.52;51.99
21182;BME280;10749;46.296;7.524;2023-08-31T07:55:28;94793.91;;;19.72;51.84
21182;BME280;10749;46.296;7.524;2023-08-31T07:57:54;94789.25;;;19.79;51.50
21182;BME280;10749;46.296;7.524;2023-08-31T08:00:19;94785.31;;;19.70;51.52
21182;BME280;10749;46.296;7.524;2023-08-31T08:02:45;94784.72;;;19.68;51.12
21182;BME280;10749;46.296;7.524;2023-08-31T08:05:11;94787.41;;;19.68;51.23
21182;BME280;10749;46.296;7.524;2023-08-31T08:07:36;94779.44;;;19.73;51.16
21182;BME280;10749;46.296;7.524;2023-08-31T08:10:02;94780.59;;;19.77;51.24
21182;BME280;10749;46.296;7.524;2023-08-31T08:12:27;94781.28;;;19.84;51.31
21182;BME280;10749;46.296;7.524;2023-08-31T08:15:01;94779.72;;;20.00;51.23
21182;BME280;10749;46.296;7.524;2023-08-31T08:17:27;94785.88;;;20.12;50.88
21182;BME280;10749;46.296;7.524;2023-08-31T08:19:52;94785.94;;;20.17;50.85
21182;BME280;10749;46.296;7.524;2023-08-31T08:22:17;94787.91;;;20.21;50.85
21182;BME280;10749;46.296;7.524;2023-08-31T08:24:42;94779.97;;;20.26;50.87
21182;BME280;10749;46.296;7.524;2023-08-31T08:27:08;94787.66;;;20.35;50.85
21182;BME280;10749;46.296;7.524;2023-08-31T08:29:33;94789.31;;;20.36;50.52
21182;BME280;10749;46.296;7.524;2023-08-31T08:31:58;94794.69;;;20.36;50.95
21182;BME280;10749;46.296;7.524;2023-08-31T08:34:25;94800.59;;;20.38;50.52
21182;BME280;10749;46.296;7.524;2023-08-31T08:36:51;94792.09;;;20.41;50.83
21182;BME280;10749;46.296;7.524;2023-08-31T08:39:17;94796.75;;;20.45;50.70
21182;BME280;10749;46.296;7.524;2023-08-31T08:41:43;94785.16;;;20.45;50.38
21182;BME280;10749;46.296;7.524;2023-08-31T08:44:09;94799.06;;;20.42;50.32
21182;BME280;10749;46.296;7.524;2023-08-31T08:46:35;94789.47;;;20.46;50.63
21182;BME280;10749;46.296;7.524;2023-08-31T08:49:02;94789.09;;;20.54;50.55
21182;BME280;10749;46.296;7.524;2023-08-31T08:51:29;94790.31;;;20.63;50.50
21182;BME280;10749;46.296;7.524;2023-08-31T08:53:59;94786.50;;;20.76;50.16
21182;BME280;10749;46.296;7.524;2023-08-31T08:56:25;94786.75;;;20.74;49.86
21182;BME280;10749;46.296;7.524;2023-08-31T08:58:51;94797.03;;;20.77;50.04
21182;BME280;10749;46.296;7.524;2023-08-31T09:01:17;94798.25;;;20.69;49.92
21182;BME280;10749;46.296;7.524;2023-08-31T09:03:45;94806.13;;;20.76;49.82
21182;BME280;10749;46.296;7.524;2023-08-31T09:06:10;94789.19;;;20.76;49.65
21182;BME280;10749;46.296;7.524;2023-08-31T09:08:36;94799.47;;;20.79;49.68
21182;BME280;10749;46.296;7.524;2023-08-31T09:11:02;94804.47;;;20.87;49.54
21182;BME280;10749;46.296;7.524;2023-08-31T09:13:29;94802.91;;;20.91;49.94
21182;BME280;10749;46.296;7.524;2023-08-31T09:15:54;94808.34;;;20.96;49.76
21182;BME280;10749;46.296;7.524;2023-08-31T09:20:53;94815.69;;;21.00;49.81
21182;BME280;10749;46.296;7.524;2023-08-31T09:23:19;94814.81;;;20.95;49.52
21182;BME280;10749;46.296;7.524;2023-08-31T09:25:48;94810.72;;;20.92;49.21
21182;BME280;10749;46.296;7.524;2023-08-31T09:28:15;94802.22;;;21.00;49.11
21182;BME280;10749;46.296;7.524;2023-08-31T09:30:41;94807.31;;;21.13;49.24
21182;BME280;10749;46.296;7.524;2023-08-31T09:33:13;94811.75;;;21.20;49.12
21182;BME280;10749;46.296;7.524;2023-08-31T09:35:40;94805.69;;;21.12;48.80
21182;BME280;10749;46.296;7.524;2023-08-31T09:38:08;94802.25;;;21.17;48.79
21182;BME280;10749;46.296;7.524;2023-08-31T09:40:35;94802.75;;;21.31;48.93
21182;BME280;10749;46.296;7.524;2023-08-31T09:43:01;94798.69;;;21.28;48.78
21182;BME280;10749;46.296;7.524;2023-08-31T09:45:30;94790.84;;;21.27;48.76
21182;BME280;10749;46.296;7.524;2023-08-31T09:48:00;94796.31;;;21.32;48.46
21182;BME280;10749;46.296;7.524;2023-08-31T09:50:29;94796.50;;;21.47;48.55
21182;BME280;10749;46.296;7.524;2023-08-31T09:52:56;94791.22;;;21.52;48.41
21182;BME280;10749;46.296;7.524;2023-08-31T09:55:25;94789.25;;;21.47;48.20
21182;BME280;10749;46.296;7.524;2023-08-31T09:57:56;94791.53;;;21.55;48.14
21182;BME280;10749;46.296;7.524;2023-08-31T10:00:24;94795.03;;;21.56;47.94
21182;BME280;10749;46.296;7.524;2023-08-31T10:02:50;94782.63;;;21.55;47.92
21182;BME280;10749;46.296;7.524;2023-08-31T10:05:17;94778.56;;;21.52;48.10
21182;BME280;10749;46.296;7.524;2023-08-31T10:07:43;94785.41;;;21.60;47.74
21182;BME280;10749;46.296;7.524;2023-08-31T10:10:09;94783.91;;;21.69;48.09
21182;BME280;10749;46.296;7.524;2023-08-31T10:12:35;94766.94;;;21.69;47.63
21182;BME280;10749;46.296;7.524;2023-08-31T10:15:01;94774.13;;;21.63;47.03
21182;BME280;10749;46.296;7.524;2023-08-31T10:17:27;94764.66;;;21.60;47.15
21182;BME280;10749;46.296;7.524;2023-08-31T10:19:53;94769.84;;;21.67;46.94
21182;BME280;10749;46.296;7.524;2023-08-31T10:22:19;94774.94;;;21.63;46.65
21182;BME280;10749;46.296;7.524;2023-08-31T10:25:01;94763.41;;;21.68;46.48
21182;BME280;10749;46.296;7.524;2023-08-31T10:27:35;94764.63;;;21.77;46.92
21182;BME280;10749;46.296;7.524;2023-08-31T10:33:01;94756.34;;;21.84;46.85
21182;BME280;10749;46.296;7.524;2023-08-31T10:35:40;94759.47;;;21.76;46.05
21182;BME280;10749;46.296;7.524;2023-08-31T10:46:33;94755.53;;;22.05;46.75
21182;BME280;10749;46.296;7.524;2023-08-31T10:51:38;94762.78;;;22.26;46.37
21182;BME280;10749;46.296;7.524;2023-08-31T10:54:11;94760.44;;;22.35;46.06
21182;BME280;10749;46.296;7.524;2023-08-31T10:59:21;94761.25;;;22.35;45.64
21182;BME280;10749;46.296;7.524;2023-08-31T11:02:00;94758.09;;;22.43;45.56
21182;BME280;10749;46.296;7.524;2023-08-31T11:04:29;94760.59;;;22.50;45.46
21182;BME280;10749;46.296;7.524;2023-08-31T11:09:39;94745.88;;;22.89;45.51
21182;BME280;10749;46.296;7.524;2023-08-31T11:12:05;94745.34;;;22.92;45.73
21182;BME280;10749;46.296;7.524;2023-08-31T11:14:30;94749.22;;;23.07;45.56
21182;BME280;10749;46.296;7.524;2023-08-31T11:16:56;94738.66;;;23.00;45.31
21182;BME280;10749;46.296;7.524;2023-08-31T11:19:21;94737.50;;;22.91;44.71
21182;BME280;10749;46.296;7.524;2023-08-31T11:21:47;94733.44;;;22.88;44.42
21182;BME280;10749;46.296;7.524;2023-08-31T11:24:12;94733.19;;;22.90;44.44
21182;BME280;10749;46.296;7.524;2023-08-31T11:26:37;94730.22;;;22.91;45.06
21182;BME280;10749;46.296;7.524;2023-08-31T11:29:06;94728.03;;;22.88;44.74
21182;BME280;10749;46.296;7.524;2023-08-31T11:31:31;94729.94;;;22.88;44.61
21182;BME280;10749;46.296;7.524;2023-08-31T11:33:57;94733.66;;;22.82;44.25
21182;BME280;10749;46.296;7.524;2023-08-31T11:36:22;94721.25;;;22.86;43.65
21182;BME280;10749;46.296;7.524;2023-08-31T11:38:48;94726.94;;;22.84;43.44
21182;BME280;10749;46.296;7.524;2023-08-31T11:41:14;94730.19;;;22.86;43.72
21182;BME280;10749;46.296;7.524;2023-08-31T11:43:40;94723.50;;;22.94;43.46
21182;BME280;10749;46.296;7.524;2023-08-31T11:46:06;94723.19;;;22.90;43.25
21182;BME280;10749;46.296;7.524;2023-08-31T11:48:33;94724.91;;;23.07;43.48
21182;BME280;10749;46.296;7.524;2023-08-31T11:50:59;94720.56;;;23.00;43.04
21182;BME280;10749;46.296;7.524;2023-08-31T11:53:24;94715.75;;;23.08;43.19
21182;BME280;10749;46.296;7.524;2023-08-31T11:55:52;94720.72;;;23.21;43.05
21182;BME280;10749;46.296;7.524;2023-08-31T11:58:19;94721.81;;;23.25;43.56
21182;BME280;10749;46.296;7.524;2023-08-31T12:00:44;94718.59;;;23.28;43.75
21182;BME280;10749;46.296;7.524;2023-08-31T12:03:12;94719.69;;;23.32;43.54
21182;BME280;10749;46.296;7.524;2023-08-31T12:05:47;94722.88;;;23.24;43.76
21182;BME280;10749;46.296;7.524;2023-08-31T12:08:14;94726.59;;;23.13;43.86
21182;BME280;10749;46.296;7.524;2023-08-31T12:10:42;94731.38;;;23.00;43.47
21182;BME280;10749;46.296;7.524;2023-08-31T12:13:11;94736.09;;;22.83;43.09
21182;BME280;10749;46.296;7.524;2023-08-31T12:15:40;94730.16;;;22.81;43.32
21182;BME280;10749;46.296;7.524;2023-08-31T12:18:12;94731.19;;;22.75;43.13
21182;BME280;10749;46.296;7.524;2023-08-31T12:20:49;94738.22;;;22.76;42.73
21182;BME280;10749;46.296;7.524;2023-08-31T12:23:16;94739.78;;;22.72;42.71
21182;BME280;10749;46.296;7.524;2023-08-31T12:25:48;94739.22;;;22.70;42.69
21182;BME280;10749;46.296;7.524;2023-08-31T12:28:14;94741.44;;;22.73;42.43
21182;BME280;10749;46.296;7.524;2023-08-31T12:30:42;94740.84;;;22.71;42.47
21182;BME280;10749;46.296;7.524;2023-08-31T12:33:09;94739.13;;;22.60;41.94
21182;BME280;10749;46.296;7.524;2023-08-31T12:35:35;94736.91;;;22.57;42.25
21182;BME280;10749;46.296;7.524;2023-08-31T12:38:00;94734.56;;;22.66;42.44
21182;BME280;10749;46.296;7.524;2023-08-31T12:40:25;94737.91;;;22.73;42.26
21182;BME280;10749;46.296;7.524;2023-08-31T12:42:50;94729.63;;;22.84;42.45
21182;BME280;10749;46.296;7.524;2023-08-31T12:45:16;94734.75;;;22.86;42.79
21182;BME280;10749;46.296;7.524;2023-08-31T12:47:41;94727.53;;;22.91;42.86
21182;BME280;10749;46.296;7.524;2023-08-31T12:50:07;94734.13;;;23.06;42.82
21182;BME280;10749;46.296;7.524;2023-08-31T12:52:32;94732.31;;;23.21;42.56
21182;BME280;10749;46.296;7.524;2023-08-31T12:54:57;94728.09;;;23.40;42.61
21182;BME280;10749;46.296;7.524;2023-08-31T12:57:23;94725.25;;;23.57;42.80
21182;BME280;10749;46.296;7.524;2023-08-31T12:59:48;94737.56;;;23.85;42.58
21182;BME280;10749;46.296;7.524;2023-08-31T13:02:13;94722.97;;;23.91;42.39
21182;BME280;10749;46.296;7.524;2023-08-31T13:04:39;94737.59;;;23.95;42.39
21182;BME280;10749;46.296;7.524;2023-08-31T13:07:05;94724.91;;;24.11;42.49
21182;BME280;10749;46.296;7.524;2023-08-31T13:09:30;94731.97;;;24.12;42.45
21182;BME280;10749;46.296;7.524;2023-08-31T13:11:56;94730.31;;;24.11;42.19
21182;BME280;10749;46.296;7.524;2023-08-31T13:14:21;94731.44;;;24.15;42.29
21182;BME280;10749;46.296;7.524;2023-08-31T13:16:46;94729.25;;;24.12;41.90
21182;BME280;10749;46.296;7.524;2023-08-31T13:19:12;94723.91;;;24.17;42.33
21182;BME280;10749;46.296;7.524;2023-08-31T13:21:37;94723.13;;;24.26;42.03